sensor_id;sensor_type;location;lat;lon;timestamp;pressure;altitude;pressure_sealevel;temperature;humidity
66176;BME280;52977;44.816;20.538;2022-10-16T00:01:57;100228.25;;;14.53;67.35
66176;BME280;52977;44.816;20.538;2022-10-16T00:04:23;100200.41;;;14.42;66.65
66176;BME280;52977;44.816;20.538;2022-10-16T00:06:49;100190.19;;;14.43;66.90
66176;BME280;52977;44.816;20.538;2022-10-16T00:09:14;100127.91;;;14.01;66.40
66176;BME280;52977;44.816;20.538;2022-10-16T00:11:40;100178.50;;;14.33;66.54
66176;BME280;52977;44.816;20.538;2022-10-16T00:14:09;100177.75;;;14.24;66.66
66176;BME280;52977;44.816;20.538;2022-10-16T00:16:36;100227.53;;;14.65;66.40
66176;BME280;52977;44.816;20.538;2022-10-16T00:19:02;100169.31;;;14.29;66.27
66176;BME280;52977;44.816;20.538;2022-10-16T00:21:29;100224.44;;;14.66;66.67
66176;BME280;52977;44.816;20.538;2022-10-16T00:24:00;100195.56;;;14.39;66.56
66176;BME280;52977;44.816;20.538;2022-10-16T00:26:27;100239.38;;;14.57;66.74
66176;BME280;52977;44.816;20.538;2022-10-16T00:28:53;100180.38;;;14.21;66.59
66176;BME280;52977;44.816;20.538;2022-10-16T00:31:20;100236.59;;;14.65;66.27
66176;BME280;52977;44.816;20.538;2022-10-16T00:33:46;100246.22;;;14.50;66.58
66176;BME280;52977;44.816;20.538;2022-10-16T00:36:16;100191.81;;;14.23;66.82
66176;BME280;52977;44.816;20.538;2022-10-16T00:38:43;100240.78;;;14.21;67.78
66176;BME280;52977;44.816;20.538;2022-10-16T00:41:14;100214.06;;;14.30;67.20
66176;BME280;52977;44.816;20.538;2022-10-16T00:43:44;100236.09;;;14.42;67.21
66176;BME280;52977;44.816;20.538;2022-10-16T00:49:09;100232.69;;;14.45;67.14
66176;BME280;52977;44.816;20.538;2022-10-16T00:51:36;100235.09;;;14.47;67.08
66176;BME280;52977;44.816;20.538;2022-10-16T00:54:04;100216.88;;;14.42;67.22
66176;BME280;52977;44.816;20.538;2022-10-16T00:56:33;100183.59;;;14.23;67.12
66176;BME280;52977;44.816;20.538;2022-10-16T00:59:02;100190.97;;;14.31;66.98
66176;BME280;52977;44.816;20.538;2022-10-16T01:01:29;100217.47;;;14.48;67.18
66176;BME280;52977;44.816;20.538;2022-10-16T01:03:55;100180.59;;;14.15;67.43
66176;BME280;52977;44.816;20.538;2022-10-16T01:09:34;100229.81;;;14.42;67.53
66176;BME280;52977;44.816;20.538;2022-10-16T01:15:26;100243.66;;;14.45;67.94
66176;BME280;52977;44.816;20.538;2022-10-16T01:31:16;100231.34;;;14.51;67.77
66176;BME280;52977;44.816;20.538;2022-10-16T01:33:46;100218.81;;;14.42;67.83
66176;BME280;52977;44.816;20.538;2022-10-16T01:36:17;100250.59;;;14.51;68.14
66176;BME280;52977;44.816;20.538;2022-10-16T01:38:47;100206.50;;;14.27;68.16
66176;BME280;52977;44.816;20.538;2022-10-16T01:41:30;100229.75;;;14.29;68.25
66176;BME280;52977;44.816;20.538;2022-10-16T01:44:04;100239.72;;;14.34;68.82
66176;BME280;52977;44.816;20.538;2022-10-16T01:46:31;100236.50;;;14.32;68.71
66176;BME280;52977;44.816;20.538;2022-10-16T01:49:00;100206.91;;;14.16;69.26
66176;BME280;52977;44.816;20.538;2022-10-16T01:51:28;100210.91;;;14.19;68.82
66176;BME280;52977;44.816;20.538;2022-10-16T01:53:56;100221.22;;;14.22;69.05
66176;BME280;52977;44.816;20.538;2022-10-16T01:56:24;100246.47;;;14.36;69.46
66176;BME280;52977;44.816;20.538;2022-10-16T01:59:05;100214.91;;;14.22;69.11
66176;BME280;52977;44.816;20.538;2022-10-16T02:01:34;100231.13;;;14.14;69.51
66176;BME280;52977;44.816;20.538;2022-10-16T02:04:07;100263.28;;;14.35;69.33
66176;BME280;52977;44.816;20.538;2022-10-16T02:06:34;100269.38;;;14.19;69.83
66176;BME280;52977;44.816;20.538;2022-10-16T02:09:01;100216.38;;;13.98;69.71
66176;BME280;52977;44.816;20.538;2022-10-16T02:11:26;100254.78;;;14.28;69.70
66176;BME280;52977;44.816;20.538;2022-10-16T02:13:59;100254.31;;;14.26;69.73
66176;BME280;52977;44.816;20.538;2022-10-16T02:16:39;100262.94;;;14.15;70.18
66176;BME280;52977;44.816;20.538;2022-10-16T02:19:06;100261.31;;;14.14;70.24
66176;BME280;52977;44.816;20.538;2022-10-16T02:26:48;100257.25;;;14.21;69.80
66176;BME280;52977;44.816;20.538;2022-10-16T02:29:19;100186.78;;;13.53;70.78
66176;BME280;52977;44.816;20.538;2022-10-16T02:31:50;100231.19;;;13.76;71.22
66176;BME280;52977;44.816;20.538;2022-10-16T02:34:19;100261.56;;;14.00;71.25
66176;BME280;52977;44.816;20.538;2022-10-16T02:36:48;100263.66;;;14.04;70.42
66176;BME280;52977;44.816;20.538;2022-10-16T02:39:16;100272.03;;;14.07;70.88
66176;BME280;52977;44.816;20.538;2022-10-16T02:41:42;100271.69;;;14.09;71.12
66176;BME280;52977;44.816;20.538;2022-10-16T02:44:09;100249.69;;;13.88;71.18
66176;BME280;52977;44.816;20.538;2022-10-16T02:46:34;100266.38;;;14.04;71.13
66176;BME280;52977;44.816;20.538;2022-10-16T02:49:00;100238.91;;;13.82;71.28
66176;BME280;52977;44.816;20.538;2022-10-16T02:51:26;100268.19;;;13.99;71.47
66176;BME280;52977;44.816;20.538;2022-10-16T02:53:51;100113.97;;;12.87;72.37
66176;BME280;52977;44.816;20.538;2022-10-16T02:56:17;100244.59;;;13.77;72.06
66176;BME280;52977;44.816;20.538;2022-10-16T02:58:42;100256.94;;;13.92;72.32
66176;BME280;52977;44.816;20.538;2022-10-16T03:01:09;100268.34;;;13.73;73.38
66176;BME280;52977;44.816;20.538;2022-10-16T03:03:35;100278.53;;;13.64;73.81
66176;BME280;52977;44.816;20.538;2022-10-16T03:06:00;100193.78;;;13.24;73.56
66176;BME280;52977;44.816;20.538;2022-10-16T03:08:26;100277.66;;;13.81;73.34
66176;BME280;52977;44.816;20.538;2022-10-16T03:10:52;100275.06;;;13.84;73.33
66176;BME280;52977;44.816;20.538;2022-10-16T03:13:18;100274.63;;;13.74;72.70
66176;BME280;52977;44.816;20.538;2022-10-16T03:15:46;100276.00;;;13.89;72.61
66176;BME280;52977;44.816;20.538;2022-10-16T03:18:12;100272.09;;;13.90;73.04
66176;BME280;52977;44.816;20.538;2022-10-16T03:20:38;100242.03;;;13.72;72.71
66176;BME280;52977;44.816;20.538;2022-10-16T03:23:03;100239.19;;;13.60;72.14
66176;BME280;52977;44.816;20.538;2022-10-16T03:25:29;100223.72;;;13.46;72.50
66176;BME280;52977;44.816;20.538;2022-10-16T03:27:55;100289.56;;;13.85;72.60
66176;BME280;52977;44.816;20.538;2022-10-16T03:30:20;100268.88;;;13.58;72.78
66176;BME280;52977;44.816;20.538;2022-10-16T03:32:46;100255.38;;;13.44;72.83
66176;BME280;52977;44.816;20.538;2022-10-16T03:35:12;100301.69;;;13.84;72.40
66176;BME280;52977;44.816;20.538;2022-10-16T03:37:38;100230.53;;;13.40;72.53
66176;BME280;52977;44.816;20.538;2022-10-16T03:40:04;100303.81;;;13.78;72.49
66176;BME280;52977;44.816;20.538;2022-10-16T03:42:30;100299.75;;;13.84;72.44
66176;BME280;52977;44.816;20.538;2022-10-16T03:44:56;100297.47;;;13.87;71.98
66176;BME280;52977;44.816;20.538;2022-10-16T03:47:21;100250.19;;;13.42;71.66
66176;BME280;52977;44.816;20.538;2022-10-16T03:49:49;100251.16;;;13.46;71.69
66176;BME280;52977;44.816;20.538;2022-10-16T03:52:15;100293.03;;;13.73;71.86
66176;BME280;52977;44.816;20.538;2022-10-16T03:54:41;100262.56;;;13.57;71.67
66176;BME280;52977;44.816;20.538;2022-10-16T03:57:07;100256.81;;;13.50;71.39
66176;BME280;52977;44.816;20.538;2022-10-16T03:59:32;100306.66;;;13.91;71.97
66176;BME280;52977;44.816;20.538;2022-10-16T04:01:58;100310.06;;;13.88;71.92
66176;BME280;52977;44.816;20.538;2022-10-16T04:04:24;100302.69;;;13.79;71.71
66176;BME280;52977;44.816;20.538;2022-10-16T04:06:50;100311.25;;;13.78;72.01
66176;BME280;52977;44.816;20.538;2022-10-16T04:09:16;100312.97;;;13.82;71.79
66176;BME280;52977;44.816;20.538;2022-10-16T04:11:42;100304.63;;;13.79;72.39
66176;BME280;52977;44.816;20.538;2022-10-16T04:14:08;100254.09;;;13.41;71.96
66176;BME280;52977;44.816;20.538;2022-10-16T04:16:34;100318.00;;;13.80;72.25
66176;BME280;52977;44.816;20.538;2022-10-16T04:19:00;100294.81;;;13.69;71.91
66176;BME280;52977;44.816;20.538;2022-10-16T04:21:25;100294.38;;;13.58;71.99
66176;BME280;52977;44.816;20.538;2022-10-16T04:23:51;100282.09;;;13.56;72.31
66176;BME280;52977;44.816;20.538;2022-10-16T04:26:17;100316.22;;;13.76;72.20
66176;BME280;52977;44.816;20.538;2022-10-16T04:28:42;100320.31;;;13.70;72.34
66176;BME280;52977;44.816;20.538;2022-10-16T04:31:08;100321.25;;;13.74;72.22
66176;BME280;52977;44.816;20.538;2022-10-16T04:33:34;100336.59;;;13.75;72.18
66176;BME280;52977;44.816;20.538;2022-10-16T04:36:00;100336.25;;;13.76;72.05
66176;BME280;52977;44.816;20.538;2022-10-16T04:38:26;100298.44;;;13.43;72.04
66176;BME280;52977;44.816;20.538;2022-10-16T04:40:52;100322.88;;;13.75;72.22
66176;BME280;52977;44.816;20.538;2022-10-16T04:43:18;100317.56;;;13.70;72.18
66176;BME280;52977;44.816;20.538;2022-10-16T04:45:44;100311.59;;;13.67;71.99
66176;BME280;52977;44.816;20.538;2022-10-16T04:48:10;100319.81;;;13.76;71.87
66176;BME280;52977;44.816;20.538;2022-10-16T04:50:35;100314.16;;;13.73;71.87
66176;BME280;52977;44.816;20.538;2022-10-16T04:53:05;100293.88;;;13.56;71.85
66176;BME280;52977;44.816;20.538;2022-10-16T04:55:31;100297.16;;;13.49;72.55
66176;BME280;52977;44.816;20.538;2022-10-16T04:57:56;100314.84;;;13.52;72.31
66176;BME280;52977;44.816;20.538;2022-10-16T05:00:22;100315.81;;;13.56;72.41
66176;BME280;52977;44.816;20.538;2022-10-16T05:02:50;100329.06;;;13.54;72.77
66176;BME280;52977;44.816;20.538;2022-10-16T05:05:16;100298.94;;;13.37;72.58
66176;BME280;52977;44.816;20.538;2022-10-16T05:07:41;100335.84;;;13.57;72.41
66176;BME280;52977;44.816;20.538;2022-10-16T05:10:07;100338.53;;;13.65;71.87
66176;BME280;52977;44.816;20.538;2022-10-16T05:12:33;100286.84;;;13.29;72.29
66176;BME280;52977;44.816;20.538;2022-10-16T05:14:59;100304.56;;;13.31;72.27
66176;BME280;52977;44.816;20.538;2022-10-16T05:17:25;100309.59;;;13.38;72.54
66176;BME280;52977;44.816;20.538;2022-10-16T05:19:51;100325.19;;;13.46;72.41
66176;BME280;52977;44.816;20.538;2022-10-16T05:22:17;100288.16;;;13.14;72.64
66176;BME280;52977;44.816;20.538;2022-10-16T05:24:43;100366.81;;;13.57;73.07
66176;BME280;52977;44.816;20.538;2022-10-16T05:27:10;100367.63;;;13.58;72.84
66176;BME280;52977;44.816;20.538;2022-10-16T05:29:36;100375.19;;;13.61;72.81
66176;BME280;52977;44.816;20.538;2022-10-16T05:32:02;100332.00;;;13.31;73.05
66176;BME280;52977;44.816;20.538;2022-10-16T05:34:28;100348.13;;;13.42;72.69
66176;BME280;52977;44.816;20.538;2022-10-16T05:36:54;100381.97;;;13.63;72.97
66176;BME280;52977;44.816;20.538;2022-10-16T05:39:20;100387.97;;;13.57;73.45
66176;BME280;52977;44.816;20.538;2022-10-16T05:41:46;100366.66;;;13.45;73.48
66176;BME280;52977;44.816;20.538;2022-10-16T05:44:11;100383.91;;;13.63;73.57
66176;BME280;52977;44.816;20.538;2022-10-16T05:46:37;100388.41;;;13.67;73.34
66176;BME280;52977;44.816;20.538;2022-10-16T05:49:03;100383.72;;;13.68;73.60
66176;BME280;52977;44.816;20.538;2022-10-16T05:51:28;100389.38;;;13.63;73.93
66176;BME280;52977;44.816;20.538;2022-10-16T05:53:54;100386.50;;;13.59;73.56
66176;BME280;52977;44.816;20.538;2022-10-16T05:56:20;100367.94;;;13.47;73.74
66176;BME280;52977;44.816;20.538;2022-10-16T05:58:45;100401.47;;;13.71;73.58
66176;BME280;52977;44.816;20.538;2022-10-16T06:01:14;100403.25;;;13.66;73.29
66176;BME280;52977;44.816;20.538;2022-10-16T06:03:40;100406.81;;;13.67;73.31
66176;BME280;52977;44.816;20.538;2022-10-16T06:06:17;100411.97;;;13.68;73.22
66176;BME280;52977;44.816;20.538;2022-10-16T06:08:43;100409.56;;;13.58;73.71
66176;BME280;52977;44.816;20.538;2022-10-16T06:11:13;100383.13;;;13.36;73.89
66176;BME280;52977;44.816;20.538;2022-10-16T06:13:39;100420.53;;;13.58;74.04
66176;BME280;52977;44.816;20.538;2022-10-16T06:16:07;100385.53;;;13.29;74.08
66176;BME280;52977;44.816;20.538;2022-10-16T06:18:33;100413.75;;;13.56;74.29
66176;BME280;52977;44.816;20.538;2022-10-16T06:20:59;100358.63;;;13.13;74.43
66176;BME280;52977;44.816;20.538;2022-10-16T06:23:28;100429.06;;;13.65;74.49
66176;BME280;52977;44.816;20.538;2022-10-16T06:25:53;100431.00;;;13.56;74.43
66176;BME280;52977;44.816;20.538;2022-10-16T06:28:19;100389.72;;;13.09;77.36
66176;BME280;52977;44.816;20.538;2022-10-16T06:30:44;100437.81;;;13.50;77.37
66176;BME280;52977;44.816;20.538;2022-10-16T06:33:11;100440.22;;;13.52;78.70
66176;BME280;52977;44.816;20.538;2022-10-16T06:35:37;100441.84;;;13.53;76.89
66176;BME280;52977;44.816;20.538;2022-10-16T06:38:03;100454.41;;;13.71;77.38
66176;BME280;52977;44.816;20.538;2022-10-16T06:40:28;100460.38;;;13.73;76.33
66176;BME280;52977;44.816;20.538;2022-10-16T06:42:57;100463.47;;;13.72;76.32
66176;BME280;52977;44.816;20.538;2022-10-16T06:45:23;100438.28;;;13.52;76.13
66176;BME280;52977;44.816;20.538;2022-10-16T06:47:48;100459.09;;;13.71;76.01
66176;BME280;52977;44.816;20.538;2022-10-16T06:50:14;100465.56;;;13.57;76.65
66176;BME280;52977;44.816;20.538;2022-10-16T06:52:40;100474.44;;;13.72;76.63
66176;BME280;52977;44.816;20.538;2022-10-16T06:55:05;100468.13;;;13.71;77.15
66176;BME280;52977;44.816;20.538;2022-10-16T06:57:31;100475.06;;;13.77;77.14
66176;BME280;52977;44.816;20.538;2022-10-16T06:59:57;100487.47;;;13.83;76.85
66176;BME280;52977;44.816;20.538;2022-10-16T07:02:23;100468.28;;;13.66;77.53
66176;BME280;52977;44.816;20.538;2022-10-16T07:04:49;100496.50;;;13.84;77.21
66176;BME280;52977;44.816;20.538;2022-10-16T07:07:15;100498.75;;;13.91;76.84
66176;BME280;52977;44.816;20.538;2022-10-16T07:09:40;100496.50;;;13.84;76.96
66176;BME280;52977;44.816;20.538;2022-10-16T07:12:06;100441.34;;;13.50;77.00
66176;BME280;52977;44.816;20.538;2022-10-16T07:14:32;100496.50;;;13.84;77.63
66176;BME280;52977;44.816;20.538;2022-10-16T07:16:57;100443.75;;;13.52;77.71
66176;BME280;52977;44.816;20.538;2022-10-16T07:19:23;100503.13;;;13.92;77.95
66176;BME280;52977;44.816;20.538;2022-10-16T07:21:50;100505.38;;;13.90;78.25
66176;BME280;52977;44.816;20.538;2022-10-16T07:24:16;100511.19;;;13.88;79.58
66176;BME280;52977;44.816;20.538;2022-10-16T07:26:44;100477.34;;;13.58;80.47
66176;BME280;52977;44.816;20.538;2022-10-16T07:29:15;100477.34;;;13.40;82.39
66176;BME280;52977;44.816;20.538;2022-10-16T07:31:41;100486.03;;;13.60;81.77
66176;BME280;52977;44.816;20.538;2022-10-16T07:34:08;100480.91;;;13.49;82.27
66176;BME280;52977;44.816;20.538;2022-10-16T07:36:34;100511.53;;;13.78;81.85
66176;BME280;52977;44.816;20.538;2022-10-16T07:38:59;100442.66;;;13.44;81.23
66176;BME280;52977;44.816;20.538;2022-10-16T07:41:26;100485.91;;;13.65;81.36
66176;BME280;52977;44.816;20.538;2022-10-16T07:43:53;100507.31;;;13.89;80.95
66176;BME280;52977;44.816;20.538;2022-10-16T07:46:21;100513.81;;;13.84;80.21
66176;BME280;52977;44.816;20.538;2022-10-16T07:48:47;100504.25;;;13.91;79.67
66176;BME280;52977;44.816;20.538;2022-10-16T07:51:19;100498.75;;;13.91;77.58
66176;BME280;52977;44.816;20.538;2022-10-16T07:53:46;100518.28;;;14.07;78.04
66176;BME280;52977;44.816;20.538;2022-10-16T07:56:12;100515.19;;;14.17;77.31
66176;BME280;52977;44.816;20.538;2022-10-16T07:58:39;100505.00;;;14.17;76.42
66176;BME280;52977;44.816;20.538;2022-10-16T08:01:09;100503.56;;;14.20;76.03
66176;BME280;52977;44.816;20.538;2022-10-16T08:03:36;100519.84;;;14.34;75.19
66176;BME280;52977;44.816;20.538;2022-10-16T08:06:02;100519.84;;;14.34;75.19
66176;BME280;52977;44.816;20.538;2022-10-16T08:08:28;100534.81;;;14.45;74.49
66176;BME280;52977;44.816;20.538;2022-10-16T08:10:54;100496.59;;;14.23;74.23
66176;BME280;52977;44.816;20.538;2022-10-16T08:13:20;100481.28;;;14.13;74.17
66176;BME280;52977;44.816;20.538;2022-10-16T08:15:46;100518.03;;;14.38;73.75
66176;BME280;52977;44.816;20.538;2022-10-16T08:18:14;100552.38;;;14.62;73.47
66176;BME280;52977;44.816;20.538;2022-10-16T08:20:42;100499.94;;;14.37;73.04
66176;BME280;52977;44.816;20.538;2022-10-16T08:23:10;100488.00;;;14.42;73.13
66176;BME280;52977;44.816;20.538;2022-10-16T08:25:38;100509.13;;;14.41;73.63
66176;BME280;52977;44.816;20.538;2022-10-16T08:28:06;100536.22;;;14.69;73.39
66176;BME280;52977;44.816;20.538;2022-10-16T09:44:36;100550.50;;;15.94;64.37
66176;BME280;52977;44.816;20.538;2022-10-16T09:47:11;100562.34;;;16.07;64.00
66176;BME280;52977;44.816;20.538;2022-10-16T09:49:38;100513.50;;;15.83;64.07
66176;BME280;52977;44.816;20.538;2022-10-16T09:52:13;100586.31;;;16.28;63.42
66176;BME280;52977;44.816;20.538;2022-10-16T09:54:52;100581.88;;;16.35;63.50
66176;BME280;52977;44.816;20.538;2022-10-16T09:57:19;100550.88;;;16.05;63.15
66176;BME280;52977;44.816;20.538;2022-10-16T09:59:49;100579.19;;;16.27;63.53
66176;BME280;52977;44.816;20.538;2022-10-16T10:02:18;100573.66;;;16.27;63.27
66176;BME280;52977;44.816;20.538;2022-10-16T10:04:52;100578.19;;;16.31;63.11
66176;BME280;52977;44.816;20.538;2022-10-16T10:07:27;100583.13;;;16.38;63.34
66176;BME280;52977;44.816;20.538;2022-10-16T10:09:55;100582.28;;;16.25;63.30
66176;BME280;52977;44.816;20.538;2022-10-16T10:12:23;100594.41;;;16.45;63.53
66176;BME280;52977;44.816;20.538;2022-10-16T10:14:51;100598.19;;;16.53;63.53
66176;BME280;52977;44.816;20.538;2022-10-16T10:17:27;100574.06;;;16.37;63.45
66176;BME280;52977;44.816;20.538;2022-10-16T10:19:57;100605.78;;;16.56;63.50
66176;BME280;52977;44.816;20.538;2022-10-16T10:27:59;100585.94;;;16.63;63.48
66176;BME280;52977;44.816;20.538;2022-10-16T10:30:55;100575.03;;;16.66;64.41
66176;BME280;52977;44.816;20.538;2022-10-16T10:33:37;100587.44;;;16.72;64.62
66176;BME280;52977;44.816;20.538;2022-10-16T10:36:29;100587.00;;;16.83;64.36
66176;BME280;52977;44.816;20.538;2022-10-16T10:38:59;100574.47;;;16.85;64.05
66176;BME280;52977;44.816;20.538;2022-10-16T10:46:36;100583.56;;;16.86;63.77
66176;BME280;52977;44.816;20.538;2022-10-16T10:52:02;100571.31;;;16.96;63.23
66176;BME280;52977;44.816;20.538;2022-10-16T11:08:00;100571.75;;;17.35;62.33
66176;BME280;52977;44.816;20.538;2022-10-16T11:10:34;100530.59;;;17.17;61.69
66176;BME280;52977;44.816;20.538;2022-10-16T11:15:50;100554.72;;;17.45;61.97
66176;BME280;52977;44.816;20.538;2022-10-16T11:18:27;100558.72;;;17.48;62.30
66176;BME280;52977;44.816;20.538;2022-10-16T11:21:04;100510.28;;;17.22;60.83
66176;BME280;52977;44.816;20.538;2022-10-16T11:23:39;100558.50;;;17.53;61.55
66176;BME280;52977;44.816;20.538;2022-10-16T11:26:14;100554.34;;;17.59;61.33
66176;BME280;52977;44.816;20.538;2022-10-16T11:28:47;100556.03;;;17.64;61.34
66176;BME280;52977;44.816;20.538;2022-10-16T11:31:37;100520.78;;;17.45;61.37
66176;BME280;52977;44.816;20.538;2022-10-16T11:34:28;100550.47;;;17.76;60.83
66176;BME280;52977;44.816;20.538;2022-10-16T11:37:14;100556.47;;;17.78;60.27
66176;BME280;52977;44.816;20.538;2022-10-16T11:39:43;100556.13;;;17.80;60.09
66176;BME280;52977;44.816;20.538;2022-10-16T11:42:35;100536.03;;;17.67;60.39
66176;BME280;52977;44.816;20.538;2022-10-16T11:48:04;100550.09;;;17.90;61.12
66176;BME280;52977;44.816;20.538;2022-10-16T11:50:39;100556.19;;;17.96;60.45
66176;BME280;52977;44.816;20.538;2022-10-16T11:53:16;100546.66;;;17.93;59.66
66176;BME280;52977;44.816;20.538;2022-10-16T11:55:44;100551.56;;;18.00;60.31
66176;BME280;52977;44.816;20.538;2022-10-16T12:01:03;100544.94;;;18.17;59.96
66176;BME280;52977;44.816;20.538;2022-10-16T12:06:25;100552.81;;;18.31;59.39
66176;BME280;52977;44.816;20.538;2022-10-16T12:08:54;100553.09;;;18.41;59.54
66176;BME280;52977;44.816;20.538;2022-10-16T12:11:36;100555.00;;;18.53;59.30
66176;BME280;52977;44.816;20.538;2022-10-16T12:16:56;100547.41;;;18.66;57.87
66176;BME280;52977;44.816;20.538;2022-10-16T12:19:26;100546.50;;;18.62;58.30
66176;BME280;52977;44.816;20.538;2022-10-16T12:21:56;100511.91;;;18.52;58.17
66176;BME280;52977;44.816;20.538;2022-10-16T12:24:42;100541.16;;;18.85;57.51
66176;BME280;52977;44.816;20.538;2022-10-16T12:27:37;100530.91;;;18.86;57.01
66176;BME280;52977;44.816;20.538;2022-10-16T12:30:05;100531.44;;;18.91;57.11
66176;BME280;52977;44.816;20.538;2022-10-16T12:32:33;100538.31;;;18.98;57.12
66176;BME280;52977;44.816;20.538;2022-10-16T12:35:02;100534.38;;;18.99;56.89
66176;BME280;52977;44.816;20.538;2022-10-16T12:37:34;100536.00;;;19.00;56.40
66176;BME280;52977;44.816;20.538;2022-10-16T12:40:32;100472.22;;;18.60;56.55
66176;BME280;52977;44.816;20.538;2022-10-16T12:42:57;100526.72;;;18.92;56.48
66176;BME280;52977;44.816;20.538;2022-10-16T12:45:31;100531.19;;;18.97;56.23
66176;BME280;52977;44.816;20.538;2022-10-16T12:47:58;100549.31;;;18.94;56.30
66176;BME280;52977;44.816;20.538;2022-10-16T12:50:34;100547.31;;;18.94;56.46
66176;BME280;52977;44.816;20.538;2022-10-16T12:53:02;100516.47;;;18.60;56.28
66176;BME280;52977;44.816;20.538;2022-10-16T12:55:35;100536.53;;;18.73;56.45
66176;BME280;52977;44.816;20.538;2022-10-16T13:06:40;100557.84;;;18.73;57.56
66176;BME280;52977;44.816;20.538;2022-10-16T13:12:14;100563.47;;;18.76;57.58
66176;BME280;52977;44.816;20.538;2022-10-16T13:20:12;100554.69;;;18.58;57.72
66176;BME280;52977;44.816;20.538;2022-10-16T13:28:22;100554.25;;;18.40;57.86
66176;BME280;52977;44.816;20.538;2022-10-16T13:30:56;100570.94;;;18.44;58.40
66176;BME280;52977;44.816;20.538;2022-10-16T13:33:42;100554.59;;;18.39;58.90
66176;BME280;52977;44.816;20.538;2022-10-16T13:36:27;100569.31;;;18.43;58.63
66176;BME280;52977;44.816;20.538;2022-10-16T13:41:42;100543.59;;;18.26;58.64
66176;BME280;52977;44.816;20.538;2022-10-16T13:44:14;100553.97;;;18.30;57.99
66176;BME280;52977;44.816;20.538;2022-10-16T13:46:42;100571.91;;;18.36;57.83
66176;BME280;52977;44.816;20.538;2022-10-16T13:49:16;100568.69;;;18.34;58.38
66176;BME280;52977;44.816;20.538;2022-10-16T13:51:54;100567.44;;;18.31;58.19
66176;BME280;52977;44.816;20.538;2022-10-16T13:54:20;100540.03;;;18.10;58.06
66176;BME280;52977;44.816;20.538;2022-10-16T13:56:45;100547.44;;;18.22;57.87
66176;BME280;52977;44.816;20.538;2022-10-16T14:01:49;100514.19;;;17.90;58.36
66176;BME280;52977;44.816;20.538;2022-10-16T14:04:17;100536.72;;;18.04;58.09
66176;BME280;52977;44.816;20.538;2022-10-16T14:06:45;100555.09;;;18.13;57.95
66176;BME280;52977;44.816;20.538;2022-10-16T14:09:22;100569.47;;;18.18;58.52
66176;BME280;52977;44.816;20.538;2022-10-16T14:11:51;100570.63;;;18.17;57.56
66176;BME280;52977;44.816;20.538;2022-10-16T14:14:19;100569.72;;;18.13;58.43
66176;BME280;52977;44.816;20.538;2022-10-16T14:16:46;100548.91;;;18.03;58.20
66176;BME280;52977;44.816;20.538;2022-10-16T14:19:21;100570.50;;;18.14;57.95
66176;BME280;52977;44.816;20.538;2022-10-16T14:21:49;100557.09;;;18.00;57.77
66176;BME280;52977;44.816;20.538;2022-10-16T14:24:34;100553.97;;;18.01;58.19
66176;BME280;52977;44.816;20.538;2022-10-16T14:27:01;100509.56;;;17.66;57.96
66176;BME280;52977;44.816;20.538;2022-10-16T14:29:28;100558.94;;;17.96;57.84
66176;BME280;52977;44.816;20.538;2022-10-16T14:32:06;100576.63;;;18.07;58.53
66176;BME280;52977;44.816;20.538;2022-10-16T14:34:53;100577.09;;;18.09;58.49
66176;BME280;52977;44.816;20.538;2022-10-16T14:37:27;100576.31;;;18.08;58.79
66176;BME280;52977;44.816;20.538;2022-10-16T14:39:55;100564.13;;;17.97;58.72
66176;BME280;52977;44.816;20.538;2022-10-16T14:42:23;100576.63;;;18.07;58.45
66176;BME280;52977;44.816;20.538;2022-10-16T14:44:50;100518.66;;;17.66;58.84
66176;BME280;52977;44.816;20.538;2022-10-16T14:47:23;100535.53;;;17.77;59.03
66176;BME280;52977;44.816;20.538;2022-10-16T14:49:52;100578.47;;;18.03;59.25
66176;BME280;52977;44.816;20.538;2022-10-16T14:52:20;100536.59;;;17.72;59.21
66176;BME280;52977;44.816;20.538;2022-10-16T14:54:49;100579.91;;;17.97;58.71
66176;BME280;52977;44.816;20.538;2022-10-16T14:57:20;100573.13;;;17.94;59.33
66176;BME280;52977;44.816;20.538;2022-10-16T14:59:48;100576.69;;;17.95;58.48
66176;BME280;52977;44.816;20.538;2022-10-16T15:02:33;100542.78;;;17.69;58.49
66176;BME280;52977;44.816;20.538;2022-10-16T15:05:13;100582.91;;;17.91;58.75
66176;BME280;52977;44.816;20.538;2022-10-16T15:07:39;100571.06;;;17.79;58.62
66176;BME280;52977;44.816;20.538;2022-10-16T15:10:05;100587.41;;;17.84;58.83
66176;BME280;52977;44.816;20.538;2022-10-16T15:12:30;100555.00;;;17.68;58.92
66176;BME280;52977;44.816;20.538;2022-10-16T15:14:56;100592.09;;;17.83;58.75
66176;BME280;52977;44.816;20.538;2022-10-16T15:17:22;100579.72;;;17.77;59.30
66176;BME280;52977;44.816;20.538;2022-10-16T15:19:47;100596.41;;;17.81;59.14
66176;BME280;52977;44.816;20.538;2022-10-16T15:22:13;100584.78;;;17.75;58.75
66176;BME280;52977;44.816;20.538;2022-10-16T15:24:39;100542.53;;;17.46;59.25
66176;BME280;52977;44.816;20.538;2022-10-16T15:27:04;100574.91;;;17.62;59.43
66176;BME280;52977;44.816;20.538;2022-10-16T15:29:30;100547.47;;;17.40;59.92
66176;BME280;52977;44.816;20.538;2022-10-16T15:31:56;100583.22;;;17.49;59.83
66176;BME280;52977;44.816;20.538;2022-10-16T15:34:22;100602.53;;;17.62;60.13
66176;BME280;52977;44.816;20.538;2022-10-16T15:36:47;100593.47;;;17.49;59.87
66176;BME280;52977;44.816;20.538;2022-10-16T15:39:15;100574.28;;;17.28;60.49
66176;BME280;52977;44.816;20.538;2022-10-16T15:41:42;100593.69;;;17.31;60.46